Latest Weather Observations for Kununurra Airport

IDD60801

Issued at 4:01 am CST Monday 27 June 2016 (issued every 30 minutes, with the page automatically refreshed every 10 minutes)

About weather observations | Map of weather stations | Latest weather observations for NT | Other Formats
Station Details ID: 002056 Name: KUNUNURRA AERO Lat: -15.78 Lon: 128.71 Height: 44.0 m
Data from the previous 72 hours. | See also: Recent months at Kununurra Airport
Date/Time
CST
Temp
°C
App
Temp
°C
Dew
Point
°C
Rel
Hum
%
Delta-T
°C
Wind Press
QNH
hPa
Press
MSL
hPa
Rain since
9am
mm
Dir  Spd
km/h
Gust
km/h
Spd
kts
Gust
kts
27/04:00am 25.7 24.3 14.5 50 6.7 SSE 15 22 8 12 1013.2 1013.1 0.0
27/03:53am 26.2 25.2 14.6 48 7.0 SSE 13 20 7 11 1013.2 1013.1 0.0
27/03:30am 25.6 24.6 14.7 51 6.5 S 13 17 7 9 1013.2 1013.1 0.0
27/03:10am 25.1 24.4 15.4 55 5.9 S 13 20 7 11 1013.2 1013.1 0.0
27/03:00am 19.8 20.2 15.4 76 2.6 SE 7 9 4 5 1013.3 1013.2 0.0
27/02:57am 20.0 20.6 15.8 77 2.5 ESE 7 9 4 5 1013.4 1013.3 0.0
27/02:42am 19.8 20.2 15.4 76 2.6 S 7 11 4 6 1013.5 1013.4 0.0
27/02:30am 20.6 21.4 15.8 74 2.9 S 6 11 3 6 1013.6 1013.5 0.0
27/02:00am 19.8 20.4 15.9 78 2.3 ESE 7 9 4 5 1013.8 1013.7 0.0
27/01:30am 21.2 21.4 15.7 71 3.3 SSW 9 11 5 6 1013.6 1013.5 0.0
27/01:00am 20.1 21.4 17.1 83 1.8 SSW 6 11 3 6 1013.7 1013.6 0.0
27/12:30am 21.4 22.7 17.0 76 2.7 SSE 6 7 3 4 1013.5 1013.4 0.0
27/12:00am 20.3 21.4 15.7 75 2.7 W 4 7 2 4 1013.2 1013.1 0.0
 
Date/Time
CST
Temp
°C
App
Temp
°C
Dew
Point
°C
Rel
Hum
%
Delta-T
°C
Wind Press
QNH
hPa
Press
MSL
hPa
Rain since
9am
mm
Dir  Spd
km/h
Gust
km/h
Spd
kts
Gust
kts
26/11:30pm 21.0 22.0 15.3 70 3.4 N 4 7 2 4 1013.1 1013.0 0.0
26/11:20pm 20.9 21.3 15.2 70 3.4 N 7 9 4 5 1013.1 1013.0 0.0
26/11:10pm 21.0 22.8 15.5 71 3.3 CALM 0 6 0 3 1013.1 1013.0 0.0
26/11:04pm 20.8 22.2 15.4 71 3.2 NW 2 6 1 3 1013.1 1013.0 0.0
26/11:00pm 21.2 22.7 15.7 71 3.3 NW 2 6 1 3 1013.0 1012.9 0.0
26/10:44pm 20.7 21.3 15.9 74 2.9 NNW 7 11 4 6 1013.0 1012.9 0.0
26/10:30pm 21.0 21.7 16.2 74 2.9 NE 7 15 4 8 1012.8 1012.6 0.0
26/10:06pm 22.4 25.0 17.5 74 3.0 CALM 0 0 0 0 1012.7 1012.5 0.0
26/10:00pm 21.7 24.4 17.7 78 2.5 CALM 0 0 0 0 1012.7 1012.5 0.0
26/09:40pm 22.0 24.4 16.9 73 3.1 CALM 0 0 0 0 1012.5 1012.3 0.0
26/09:30pm 22.0 23.9 15.8 68 3.7 CALM 0 0 0 0 1012.6 1012.4 0.0
26/09:00pm 23.6 25.7 18.9 75 3.0 SSE 6 7 3 4 1012.3 1012.1 0.0
26/08:30pm 23.3 24.9 14.8 59 5.1 CALM 0 0 0 0 1012.2 1012.0 0.0
26/08:00pm 23.9 25.8 15.7 60 5.0 CALM 0 0 0 0 1012.0 1011.8 0.0
26/07:30pm 25.4 27.3 15.7 55 5.9 CALM 0 0 0 0 1011.7 1011.5 0.0
26/07:00pm 27.2 28.4 15.9 50 6.9 ESE 4 6 2 3 1011.4 1011.2 0.0
26/06:30pm 30.2 30.1 13.9 37 9.8 SE 7 9 4 5 1011.2 1011.0 0.0
26/06:00pm 32.3 31.5 14.0 33 11.1 SE 11 13 6 7 1011.0 1010.8 0.0
26/05:30pm 33.5 32.0 13.0 29 12.4 ESE 13 15 7 8 1010.6 1010.4 0.0
26/05:00pm 33.9 32.2 12.3 27 12.9 ESE 13 17 7 9 1010.4 1010.2 0.0
26/04:30pm 34.2 32.3 13.1 28 12.8 ESE 15 19 8 10 1010.3 1010.1 0.0
26/04:00pm 34.2 31.8 12.5 27 13.0 SSE 17 20 9 11 1010.4 1010.2 0.0
26/03:30pm 34.5 32.0 12.2 26 13.3 SE 17 20 9 11 1010.5 1010.3 0.0
26/03:00pm 34.6 32.3 12.9 27 13.1 SE 17 26 9 14 1010.7 1010.5 0.0
26/02:30pm 34.8 33.3 13.0 26 13.2 ESE 13 20 7 11 1010.9 1010.7 0.0
26/02:00pm 33.9 33.8 13.9 30 12.2 SSE 7 17 4 9 1011.3 1011.1 0.0
26/01:30pm 33.6 33.0 13.6 29 12.2 SE 9 17 5 9 1011.8 1011.6 0.0
26/01:00pm 33.9 33.6 12.8 28 12.7 ENE 6 11 3 6 1012.4 1012.2 0.0
26/12:30pm 32.9 31.8 13.0 30 12.0 SE 11 13 6 7 1013.0 1012.9 0.0
26/12:00pm 32.2 31.9 14.3 33 10.9 SSE 9 13 5 7 1013.5 1013.4 0.0
26/11:30am 31.7 32.4 16.0 38 9.8 S 7 13 4 7 1013.8 1013.7 0.0
26/11:00am 31.0 31.7 16.2 41 9.3 S 7 11 4 6 1014.1 1014.0 0.0
26/10:30am 29.3 29.6 16.1 44 8.2 SSE 9 11 5 6 1014.5 1014.4 0.0
26/10:00am 27.6 28.7 16.6 51 6.8 SSE 6 9 3 5 1014.6 1014.5 0.0
26/09:30am 25.1 26.0 16.5 59 5.3 SSE 7 9 4 5 1014.6 1014.5 0.0
26/09:00am 23.2 24.7 15.8 63 4.5 SSW 2 7 1 4 1014.4 1014.3 0.0
26/08:30am 21.6 23.5 15.7 69 3.5 CALM 0 4 0 2 1014.1 1014.0 0.0
26/08:00am 18.7 19.8 16.5 87 1.3 S 6 7 3 4 1014.0 1013.9 0.0
26/07:30am 16.9 17.6 15.6 92 0.8 SSW 6 7 3 4 1013.8 1013.7 0.0
26/07:00am 16.3 18.0 15.2 93 0.6 CALM 0 0 0 0 1013.5 1013.4 0.0
26/06:30am 16.4 18.0 14.8 90 0.9 CALM 0 6 0 3 1013.4 1013.3 0.0
26/06:00am 16.8 17.5 15.5 92 0.8 ENE 6 9 3 5 1013.3 1013.2 0.0
26/05:30am 16.5 18.2 15.2 92 0.8 CALM 0 0 0 0 1013.1 1013.0 0.0
26/05:00am 17.0 18.5 15.7 92 0.8 S 2 7 1 4 1013.0 1012.9 0.0
26/04:30am 17.0 18.2 15.0 88 1.2 S 2 6 1 3 1012.8 1012.6 0.0
26/04:00am 17.7 19.0 15.1 85 1.5 ESE 2 7 1 4 1012.7 1012.5 0.0
26/03:30am 17.7 19.5 15.5 87 1.3 CALM 0 0 0 0 1012.5 1012.3 0.0
26/03:00am 17.7 19.4 15.3 86 1.4 CALM 0 0 0 0 1012.7 1012.5 0.0
26/02:30am 18.3 20.0 15.2 82 1.8 CALM 0 0 0 0 1012.8 1012.6 0.0
26/02:00am 19.4 21.3 15.7 79 2.2 CALM 0 0 0 0 1012.9 1012.7 0.0
26/01:30am 18.5 20.3 15.4 82 1.8 CALM 0 0 0 0 1013.2 1013.1 0.0
26/01:00am 20.1 22.5 16.9 82 1.9 CALM 0 0 0 0 1013.4 1013.3 0.0
26/12:30am 20.0 22.1 16.2 79 2.3 CALM 0 0 0 0 1013.4 1013.3 0.0
26/12:00am 20.3 22.1 15.5 74 2.9 CALM 0 0 0 0 1013.6 1013.5 0.0
 
Date/Time
CST
Temp
°C
App
Temp
°C
Dew
Point
°C
Rel
Hum
%
Delta-T
°C
Wind Press
QNH
hPa
Press
MSL
hPa
Rain since
9am
mm
Dir  Spd
km/h
Gust
km/h
Spd
kts
Gust
kts
25/11:30pm 21.2 22.1 16.2 73 3.0 ESE 6 7 3 4 1013.7 1013.6 0.0
25/11:00pm 21.9 22.6 16.2 70 3.4 ESE 7 9 4 5 1013.8 1013.7 0.0
25/10:30pm 21.7 21.8 15.5 68 3.7 ENE 9 9 5 5 1013.5 1013.4 0.0
25/10:00pm 21.4 23.3 15.7 70 3.4 CALM 0 7 0 4 1013.4 1013.3 0.0
25/09:30pm 22.3 22.7 14.7 62 4.5 W 6 7 3 4 1013.4 1013.3 0.0
25/09:00pm 24.2 24.7 14.9 56 5.6 WNW 6 7 3 4 1013.2 1013.1 0.0
25/08:30pm 24.1 24.4 15.1 57 5.4 NW 7 9 4 5 1012.8 1012.6 0.0
25/08:00pm 22.3 22.9 15.2 64 4.2 N 6 15 3 8 1012.4 1012.2 0.0
25/07:30pm 24.9 27.3 16.9 61 5.0 CALM 0 4 0 2 1011.9 1011.7 0.0
25/07:00pm 26.9 28.5 17.9 57 5.7 ENE 6 6 3 3 1011.6 1011.4 0.0
25/06:30pm 29.1 30.5 17.3 49 7.5 ENE 6 7 3 4 1011.3 1011.1 0.0
25/06:00pm 32.0 31.9 13.2 31 11.3 N 6 7 3 4 1010.9 1010.7 0.0
25/05:30pm 32.6 32.3 13.3 31 11.6 N 7 9 4 5 1010.6 1010.4 0.0
25/05:00pm 33.6 32.5 12.0 27 12.8 N 9 11 5 6 1010.6 1010.4 0.0
25/04:30pm 33.7 31.9 12.1 27 12.9 N 13 20 7 11 1010.5 1010.3 0.0
25/04:00pm 33.8 32.0 12.2 27 12.9 N 13 20 7 11 1010.4 1010.2 0.0
25/03:30pm 33.9 32.0 11.7 26 13.1 N 13 19 7 10 1010.6 1010.4 0.0
25/03:00pm 34.4 32.8 11.5 25 13.5 NNE 11 17 6 9 1010.8 1010.6 0.0
25/02:30pm 33.8 31.9 10.4 24 13.6 NNE 11 19 6 10 1011.2 1011.0 0.0
25/02:00pm 33.4 31.9 11.9 27 12.7 NNE 11 17 6 9 1011.6 1011.4 0.0
25/01:30pm 32.1 29.7 11.3 28 12.1 NE 15 24 8 13 1012.2 1012.0 0.0
25/01:00pm 31.8 30.7 12.1 30 11.6 NE 9 20 5 11 1012.9 1012.7 0.0
25/12:30pm 30.7 28.7 11.6 31 11.1 ENE 13 20 7 11 1013.4 1013.3 0.0
25/12:00pm 30.8 28.1 11.7 31 11.2 E 17 22 9 12 1013.9 1013.8 0.0
25/11:30am 29.6 27.3 11.6 33 10.4 SE 15 19 8 10 1014.2 1014.1 0.0
25/11:00am 29.1 26.6 11.2 33 10.3 SE 15 19 8 10 1014.5 1014.4 0.0
25/10:30am 28.9 26.6 10.6 32 10.4 ESE 13 19 7 10 1015.0 1014.9 0.0
25/10:00am 28.0 24.9 10.2 33 10.0 ESE 17 22 9 12 1015.0 1014.9 0.0
25/09:30am 26.4 26.1 12.8 43 7.9 SE 6 11 3 6 1015.1 1015.0 0.0
25/09:00am 23.0 23.6 15.3 62 4.6 S 6 9 3 5 1014.8 1014.7 0.0
25/08:30am 20.7 21.4 15.5 72 3.1 SSE 6 9 3 5 1014.5 1014.4 0.0
25/08:00am 17.9 18.8 15.2 84 1.6 SSW 4 6 2 3 1014.2 1014.1 0.0
25/07:30am 16.2 16.0 13.7 85 1.4 SSW 7 7 4 4 1013.8 1013.7 0.0
25/07:00am 16.6 17.8 13.9 84 1.5 CALM 0 0 0 0 1013.3 1013.2 0.0
25/06:30am 16.8 18.0 13.7 82 1.8 CALM 0 0 0 0 1012.9 1012.7 0.0
25/06:00am 16.8 18.0 13.7 82 1.8 CALM 0 0 0 0 1012.6 1012.4 0.0
25/05:30am 16.7 17.8 13.4 81 1.9 CALM 0 0 0 0 1012.6 1012.4 0.0
25/05:00am 17.2 17.7 12.9 76 2.4 NNE 2 6 1 3 1012.3 1012.1 0.0
25/04:30am 17.5 17.0 13.8 79 2.1 NNE 9 17 5 9 1012.2 1012.0 0.0
25/04:00am 18.0 18.4 14.7 81 1.9 S 6 7 3 4 1011.9 1011.7 0.0
25/03:30am 17.8 18.0 14.7 82 1.8 SSW 7 9 4 5 1011.9 1011.7 0.0
25/03:00am 18.3 19.5 15.0 81 1.9 ENE 2 7 1 4 1012.1 1011.9 0.0
25/02:30am 18.2 19.6 14.5 79 2.1 CALM 0 0 0 0 1012.3 1012.1 0.0
25/02:00am 18.4 19.8 14.5 78 2.3 CALM 0 0 0 0 1012.4 1012.2 0.0
25/01:30am 18.9 19.2 14.6 76 2.5 ENE 6 7 3 4 1012.5 1012.3 0.0
25/01:00am 19.1 19.4 14.6 75 2.6 E 6 6 3 3 1012.6 1012.4 0.0
25/12:30am 19.2 20.9 15.1 77 2.4 CALM 0 0 0 0 1012.6 1012.4 0.0
25/12:00am 19.8 20.4 15.2 75 2.7 S 6 7 3 4 1012.9 1012.7 0.0
 
Date/Time
CST
Temp
°C
App
Temp
°C
Dew
Point
°C
Rel
Hum
%
Delta-T
°C
Wind Press
QNH
hPa
Press
MSL
hPa
Rain since
9am
mm
Dir  Spd
km/h
Gust
km/h
Spd
kts
Gust
kts
24/11:30pm 20.9 22.0 15.7 72 3.1 SSE 4 6 2 3 1012.9 1012.7 0.0
24/11:00pm 20.7 21.8 14.6 68 3.6 SE 2 6 1 3 1013.1 1013.0 0.0
24/10:30pm 21.5 23.2 15.1 67 3.8 CALM 0 0 0 0 1013.2 1013.1 0.0
24/10:00pm 21.5 23.2 15.1 67 3.8 CALM 0 6 0 3 1013.1 1013.0 0.0
24/09:30pm 22.0 23.5 14.6 63 4.4 CALM 0 0 0 0 1013.0 1012.9 0.0
24/09:00pm 21.9 22.3 14.8 64 4.2 SSW 6 7 3 4 1012.9 1012.7 0.0
24/08:30pm 23.8 24.6 16.3 63 4.6 SSE 7 9 4 5 1012.6 1012.4 0.0
24/08:00pm 23.8 24.6 14.8 57 5.4 NNE 4 7 2 4 1012.4 1012.2 0.0
24/07:30pm 24.3 25.4 15.5 58 5.3 NNE 4 9 2 5 1012.0 1011.8 0.0
24/07:00pm 26.2 28.3 16.2 54 6.2 CALM 0 0 0 0 1011.8 1011.6 0.0
24/06:30pm 27.9 29.9 15.9 48 7.4 CALM 0 0 0 0 1011.5 1011.3 0.0
24/06:00pm 29.8 29.0 11.8 33 10.5 NNW 7 9 4 5 1011.3 1011.1 0.0
24/05:30pm 32.1 32.0 10.8 27 12.3 NE 2 6 1 3 1010.9 1010.7 0.0
24/05:00pm 33.2 31.5 9.9 24 13.4 NE 9 11 5 6 1010.7 1010.5 0.0
24/04:30pm 33.9 31.1 7.0 19 14.8 ENE 11 15 6 8 1010.5 1010.3 0.0
24/04:00pm 34.5 30.7 5.9 17 15.5 E 15 20 8 11 1010.4 1010.2 0.0
24/03:30pm 34.7 31.9 6.9 18 15.3 ESE 11 15 6 8 1010.4 1010.2 0.0
24/03:00pm 34.4 31.5 6.7 18 15.2 S 11 15 6 8 1010.5 1010.3 0.0
24/02:30pm 33.9 31.1 7.0 19 14.8 S 11 13 6 7 1010.8 1010.6 0.0
24/02:00pm 33.6 31.7 9.0 22 13.9 SSW 9 17 5 9 1011.2 1011.0 0.0
24/01:30pm 32.7 31.1 10.1 25 13.0 S 9 17 5 9 1011.8 1011.6 0.0
24/01:00pm 32.4 31.3 12.1 29 12.0 S 9 17 5 9 1012.5 1012.3 0.0
24/12:30pm 31.1 30.2 12.5 32 11.0 SSE 9 13 5 7 1013.1 1013.0 0.0
24/12:00pm 30.2 29.4 13.0 34 10.2 S 9 13 5 7 1013.4 1013.3 0.0
24/11:30am 28.8 28.3 12.7 37 9.5 SE 7 9 4 5 1013.9 1013.8 0.0
24/11:00am 27.9 27.2 11.5 36 9.4 SE 6 9 3 5 1014.1 1014.0 0.0
24/10:30am 26.8 25.9 9.2 33 9.7 S 4 7 2 4 1014.1 1014.0 0.0
24/10:00am 24.6 24.4 12.9 48 6.8 S 6 9 3 5 1014.1 1014.0 0.0
24/09:30am 23.3 22.6 12.0 49 6.4 S 7 9 4 5 1014.0 1013.9 0.0
24/09:00am 20.5 21.3 13.7 65 3.9 SSW 2 7 1 4 1013.9 1013.8 0.0
24/08:30am 18.7 20.5 15.4 81 1.9 CALM 0 0 0 0 1013.5 1013.4 0.0
24/08:00am 14.7 15.5 12.4 86 1.3 CALM 0 0 0 0 1013.2 1013.1 0.0
24/07:30am 14.5 15.3 12.4 87 1.1 CALM 0 0 0 0 1012.8 1012.6 0.0
24/07:00am 14.8 15.8 13.2 90 0.9 CALM 0 0 0 0 1012.7 1012.5 0.0
24/06:30am 15.1 16.1 13.3 89 1.0 CALM 0 0 0 0 1012.6 1012.4 0.0
24/06:00am 15.0 16.1 13.4 90 0.9 CALM 0 0 0 0 1012.4 1012.2 0.0

Other Formats:

Comma delimited format used in spreadsheet applications
http://www.bom.gov.au/fwo/IDD60801/IDD60801.94216.axf

JavaScript Object Notation format (JSON) in row-major order
http://www.bom.gov.au/fwo/IDD60801/IDD60801.94216.json